Venezia — 9HA4659 — position and weather

sailwx.info

Track history (hours):
 
Tides and Currents Weather Stations Pressure Air Temp Water Temp Dewpoint Dewpoint Depression Visibility Wind Speed Wind Dir Waves Ship Positions

Venezia

Last reported at 2018-Jul-19 04:41 UTC. Time now 2018-Jul-21 21:12 UTC.
Position N 37°12' E 024°04'.

Length 199 m; draft 13 m.

Type: Cargo ship. MMSI: 248457000.

Date/timePositionNaut miles runAvg speedWind from/ knotsBaromVisibWave heightAir tempDewpointWater temp
2018-Jul-19 04:41N 37°12' E 024°04'313.6
2018-Jul-19 04:29N 37°10' E 024°02'1313.7
2018-Jul-19 03:32N 37°00' E 023°51'114.0
2018-Jul-19 03:28N 36°59' E 023°50'614.0
2018-Jul-19 03:00N 36°54' E 023°46'813.7
2018-Jul-19 02:25N 36°48' E 023°40'42213.1
2018-Jul-17 18:08N 36°13' E 014°57'413.0
2018-Jul-17 17:49N 36°15' E 014°52'413.1
2018-Jul-17 17:30N 36°17' E 014°48'713.2
2018-Jul-17 17:00N 36°20' E 014°41'713.1
2018-Jul-17 16:30N 36°23' E 014°34'913.1
2018-Jul-17 15:48N 36°29' E 014°25'413.1
2018-Jul-17 15:31N 36°31' E 014°21'713.3
2018-Jul-17 15:00N 36°35' E 014°14'713.5
2018-Jul-17 14:28N 36°38' E 014°06'613.7
2018-Jul-17 14:00N 36°41' E 013°59'713.6
2018-Jul-17 13:31N 36°45' E 013°52'713.4
2018-Jul-17 13:00N 36°48' E 013°44'613.0
2018-Jul-17 12:30N 36°52' E 013°38'41713.1
2018-Jul-16 04:33N 37°25' E 004°56'914.3
2018-Jul-16 03:55N 37°23' E 004°44'1114.2
2018-Jul-16 03:08N 37°20' E 004°31'614.2
2018-Jul-16 02:42N 37°18' E 004°23'314.1
2018-Jul-16 02:30N 37°18' E 004°20'1713.9
2018-Jul-16 01:17N 37°16' E 003°59'1013.9
2018-Jul-16 00:34N 37°14' E 003°47'113.8
2018-Jul-16 00:30N 37°14' E 003°46'6213.7
2018-Jul-15 20:00N 37°02' E 002°29'714.3
2018-Jul-15 19:30N 37°00' E 002°21'814.6
2018-Jul-15 18:57N 36°59' E 002°11'34614.8
2018-Jul-14 19:29N 36°01' W 004°54'816.4
2018-Jul-14 19:00N 35°60' W 005°03'816.4
2018-Jul-14 18:31N 35°59' W 005°13'917.3
2018-Jul-14 18:01N 35°58' W 005°24'1017.9
2018-Jul-14 17:26N 35°55' W 005°36'918.2
2018-Jul-14 16:56N 35°55' W 005°48'  
Track history (hours):
 
Tides and Currents Weather Stations Pressure Air Temp Water Temp Dewpoint Dewpoint Depression Visibility Wind Speed Wind Dir Waves Ship Positions

Venezia

Last reported at 2018-Jul-19 04:41 UTC. Time now 2018-Jul-21 21:12 UTC.
Position N 37°12' E 024°04'.

Length 199 m; draft 13 m.

Type: Cargo ship. MMSI: 248457000.

Date/timePositionNaut miles runAvg speedWind from/ knotsBaromVisibWave heightAir tempDewpointWater temp
2018-Jul-19 04:41N 37°12' E 024°04'313.6
2018-Jul-19 04:29N 37°10' E 024°02'1313.7
2018-Jul-19 03:32N 37°00' E 023°51'114.0
2018-Jul-19 03:28N 36°59' E 023°50'614.0
2018-Jul-19 03:00N 36°54' E 023°46'813.7
2018-Jul-19 02:25N 36°48' E 023°40'42213.1
2018-Jul-17 18:08N 36°13' E 014°57'413.0
2018-Jul-17 17:49N 36°15' E 014°52'413.1
2018-Jul-17 17:30N 36°17' E 014°48'713.2
2018-Jul-17 17:00N 36°20' E 014°41'713.1
2018-Jul-17 16:30N 36°23' E 014°34'913.1
2018-Jul-17 15:48N 36°29' E 014°25'413.1
2018-Jul-17 15:31N 36°31' E 014°21'713.3
2018-Jul-17 15:00N 36°35' E 014°14'713.5
2018-Jul-17 14:28N 36°38' E 014°06'613.7
2018-Jul-17 14:00N 36°41' E 013°59'713.6
2018-Jul-17 13:31N 36°45' E 013°52'713.4
2018-Jul-17 13:00N 36°48' E 013°44'613.0
2018-Jul-17 12:30N 36°52' E 013°38'41713.1
2018-Jul-16 04:33N 37°25' E 004°56'914.3
2018-Jul-16 03:55N 37°23' E 004°44'1114.2
2018-Jul-16 03:08N 37°20' E 004°31'614.2
2018-Jul-16 02:42N 37°18' E 004°23'314.1
2018-Jul-16 02:30N 37°18' E 004°20'1713.9
2018-Jul-16 01:17N 37°16' E 003°59'1013.9
2018-Jul-16 00:34N 37°14' E 003°47'113.8
2018-Jul-16 00:30N 37°14' E 003°46'6213.7
2018-Jul-15 20:00N 37°02' E 002°29'714.3
2018-Jul-15 19:30N 37°00' E 002°21'814.6
2018-Jul-15 18:57N 36°59' E 002°11'34614.8
2018-Jul-14 19:29N 36°01' W 004°54'816.4
2018-Jul-14 19:00N 35°60' W 005°03'816.4
2018-Jul-14 18:31N 35°59' W 005°13'917.3
2018-Jul-14 18:01N 35°58' W 005°24'1017.9
2018-Jul-14 17:26N 35°55' W 005°36'918.2
2018-Jul-14 16:56N 35°55' W 005°48'  

Dump ship's entire track history